sensor_id;sensor_type;location;lat;lon;timestamp;pressure;altitude;pressure_sealevel;temperature;humidity
22018;BME280;11173;51.050;7.108;2023-10-09T00:04:24;100014.34;;;13.37;67.41
22018;BME280;11173;51.050;7.108;2023-10-09T00:14:30;100016.59;;;13.26;67.02
22018;BME280;11173;51.050;7.108;2023-10-09T00:24:33;100007.25;;;13.12;67.20
22018;BME280;11173;51.050;7.108;2023-10-09T00:34:34;100018.19;;;13.03;67.12
22018;BME280;11173;51.050;7.108;2023-10-09T00:44:40;100009.78;;;12.83;66.73
22018;BME280;11173;51.050;7.108;2023-10-09T00:54:42;99996.91;;;12.66;67.25
22018;BME280;11173;51.050;7.108;2023-10-09T01:04:44;99980.19;;;12.62;67.56
22018;BME280;11173;51.050;7.108;2023-10-09T01:14:45;99971.25;;;12.71;68.11
22018;BME280;11173;51.050;7.108;2023-10-09T01:24:52;99956.41;;;12.78;67.75
22018;BME280;11173;51.050;7.108;2023-10-09T01:34:55;99939.88;;;12.83;68.00
22018;BME280;11173;51.050;7.108;2023-10-09T01:44:58;99938.81;;;12.97;67.85
22018;BME280;11173;51.050;7.108;2023-10-09T01:54:58;99923.81;;;13.07;67.79
22018;BME280;11173;51.050;7.108;2023-10-09T02:05:05;99939.09;;;13.23;67.70
22018;BME280;11173;51.050;7.108;2023-10-09T02:15:15;99942.75;;;13.40;67.76
22018;BME280;11173;51.050;7.108;2023-10-09T02:25:16;99938.94;;;13.50;67.42
22018;BME280;11173;51.050;7.108;2023-10-09T02:35:21;99943.63;;;13.53;67.16
22018;BME280;11173;51.050;7.108;2023-10-09T02:45:43;99948.66;;;13.62;67.02
22018;BME280;11173;51.050;7.108;2023-10-09T02:55:50;99929.16;;;13.58;66.67
22018;BME280;11173;51.050;7.108;2023-10-09T03:06:13;99913.53;;;13.41;66.55
22018;BME280;11173;51.050;7.108;2023-10-09T03:16:20;99901.06;;;13.25;66.78
22018;BME280;11173;51.050;7.108;2023-10-09T03:26:20;99903.38;;;13.30;67.42
22018;BME280;11173;51.050;7.108;2023-10-09T03:36:21;99896.31;;;13.42;67.58
22018;BME280;11173;51.050;7.108;2023-10-09T03:46:21;99910.53;;;13.68;67.69
22018;BME280;11173;51.050;7.108;2023-10-09T03:56:26;99911.00;;;13.83;67.33
22018;BME280;11173;51.050;7.108;2023-10-09T04:06:27;99904.69;;;13.95;67.51
22018;BME280;11173;51.050;7.108;2023-10-09T04:16:34;99902.41;;;14.06;67.27
22018;BME280;11173;51.050;7.108;2023-10-09T04:26:51;99882.28;;;14.11;67.26
22018;BME280;11173;51.050;7.108;2023-10-09T04:36:57;99886.66;;;14.12;66.96
22018;BME280;11173;51.050;7.108;2023-10-09T04:47:01;99893.38;;;14.15;66.89
22018;BME280;11173;51.050;7.108;2023-10-09T04:57:11;99887.00;;;14.15;67.09
22018;BME280;11173;51.050;7.108;2023-10-09T05:07:23;99876.50;;;14.19;66.91
22018;BME280;11173;51.050;7.108;2023-10-09T05:17:46;99866.31;;;14.25;66.81
22018;BME280;11173;51.050;7.108;2023-10-09T05:27:56;99868.09;;;14.19;66.70
22018;BME280;11173;51.050;7.108;2023-10-09T05:38:17;99880.53;;;14.18;66.79
22018;BME280;11173;51.050;7.108;2023-10-09T05:48:24;99877.72;;;14.01;66.71
22018;BME280;11173;51.050;7.108;2023-10-09T05:58:24;99898.22;;;13.98;67.50
22018;BME280;11173;51.050;7.108;2023-10-09T06:09:03;99898.50;;;14.04;67.85
22018;BME280;11173;51.050;7.108;2023-10-09T06:19:14;99894.38;;;14.08;68.06
22018;BME280;11173;51.050;7.108;2023-10-09T06:29:20;99912.03;;;14.38;68.01
22018;BME280;11173;51.050;7.108;2023-10-09T06:39:36;99934.75;;;14.57;67.99
22018;BME280;11173;51.050;7.108;2023-10-09T06:49:55;99954.00;;;14.71;67.93
22018;BME280;11173;51.050;7.108;2023-10-09T07:00:15;99971.47;;;15.21;68.43
22018;BME280;11173;51.050;7.108;2023-10-09T07:10:36;99977.97;;;15.73;66.81
22018;BME280;11173;51.050;7.108;2023-10-09T07:20:40;99967.44;;;15.89;66.05
22018;BME280;11173;51.050;7.108;2023-10-09T07:30:45;99973.75;;;15.94;66.05
22018;BME280;11173;51.050;7.108;2023-10-09T07:40:56;99963.84;;;15.89;66.41
22018;BME280;11173;51.050;7.108;2023-10-09T07:51:02;99973.59;;;16.23;67.08
22018;BME280;11173;51.050;7.108;2023-10-09T08:01:05;99980.59;;;16.66;66.31
22018;BME280;11173;51.050;7.108;2023-10-09T08:11:15;99988.31;;;16.87;65.33
22018;BME280;11173;51.050;7.108;2023-10-09T08:21:43;99979.59;;;16.95;65.12
22018;BME280;11173;51.050;7.108;2023-10-09T08:32:27;99975.28;;;17.03;65.24
22018;BME280;11173;51.050;7.108;2023-10-09T09:27:45;99940.75;;;18.64;65.96
22018;BME280;11173;51.050;7.108;2023-10-09T09:38:10;99920.50;;;19.03;64.99
22018;BME280;11173;51.050;7.108;2023-10-09T09:48:18;99908.88;;;19.19;63.99
22018;BME280;11173;51.050;7.108;2023-10-09T09:58:19;99926.88;;;19.40;65.14
22018;BME280;11173;51.050;7.108;2023-10-09T10:08:21;99913.97;;;19.91;64.37
22018;BME280;11173;51.050;7.108;2023-10-09T10:18:22;99931.91;;;20.36;62.46
22018;BME280;11173;51.050;7.108;2023-10-09T10:28:25;99912.72;;;20.40;61.41
22018;BME280;11173;51.050;7.108;2023-10-09T10:38:33;99912.53;;;20.44;61.11
22018;BME280;11173;51.050;7.108;2023-10-09T10:48:54;99923.19;;;20.49;60.43
22018;BME280;11173;51.050;7.108;2023-10-09T10:59:15;99930.81;;;20.58;59.70
22018;BME280;11173;51.050;7.108;2023-10-09T11:09:22;99932.53;;;20.64;57.78
22018;BME280;11173;51.050;7.108;2023-10-09T11:19:23;99938.28;;;20.70;58.25
22018;BME280;11173;51.050;7.108;2023-10-09T11:29:27;99926.44;;;20.81;57.17
22018;BME280;11173;51.050;7.108;2023-10-09T11:39:29;99929.09;;;20.84;55.71
22018;BME280;11173;51.050;7.108;2023-10-09T11:49:56;99929.75;;;20.79;56.48
22018;BME280;11173;51.050;7.108;2023-10-09T12:00:04;99938.47;;;20.91;55.08
22018;BME280;11173;51.050;7.108;2023-10-09T12:10:30;99922.91;;;20.86;54.40
22018;BME280;11173;51.050;7.108;2023-10-09T12:20:31;99924.13;;;20.70;54.96
22018;BME280;11173;51.050;7.108;2023-10-09T12:30:34;99926.94;;;20.70;54.51
22018;BME280;11173;51.050;7.108;2023-10-09T12:40:39;99925.41;;;20.69;54.54
22018;BME280;11173;51.050;7.108;2023-10-09T12:50:41;99916.72;;;20.73;54.65
22018;BME280;11173;51.050;7.108;2023-10-09T13:00:43;99905.88;;;20.71;54.17
22018;BME280;11173;51.050;7.108;2023-10-09T13:10:50;99914.75;;;20.64;54.37
22018;BME280;11173;51.050;7.108;2023-10-09T13:21:00;99933.84;;;20.54;54.07
22018;BME280;11173;51.050;7.108;2023-10-09T13:31:04;99921.81;;;20.44;54.51
22018;BME280;11173;51.050;7.108;2023-10-09T13:41:04;99928.00;;;20.34;54.80
22018;BME280;11173;51.050;7.108;2023-10-09T13:51:05;99925.63;;;20.17;54.68
22018;BME280;11173;51.050;7.108;2023-10-09T14:01:09;99918.47;;;19.98;55.43
22018;BME280;11173;51.050;7.108;2023-10-09T14:11:10;99915.88;;;19.85;55.10
22018;BME280;11173;51.050;7.108;2023-10-09T14:21:13;99913.41;;;19.68;55.59
22018;BME280;11173;51.050;7.108;2023-10-09T14:31:16;99925.38;;;19.63;54.99
22018;BME280;11173;51.050;7.108;2023-10-09T14:41:21;99905.78;;;19.60;56.02
22018;BME280;11173;51.050;7.108;2023-10-09T14:51:24;99923.50;;;19.60;55.68
22018;BME280;11173;51.050;7.108;2023-10-09T15:01:28;99906.44;;;19.55;55.60
22018;BME280;11173;51.050;7.108;2023-10-09T15:11:30;99890.91;;;19.50;55.63
22018;BME280;11173;51.050;7.108;2023-10-09T15:21:30;99883.53;;;19.53;56.13
22018;BME280;11173;51.050;7.108;2023-10-09T15:31:33;99892.41;;;19.60;56.45
22018;BME280;11173;51.050;7.108;2023-10-09T15:41:34;99910.81;;;19.56;56.33
22018;BME280;11173;51.050;7.108;2023-10-09T15:51:35;99914.41;;;19.56;56.48
22018;BME280;11173;51.050;7.108;2023-10-09T16:01:36;99913.81;;;19.52;55.79
22018;BME280;11173;51.050;7.108;2023-10-09T16:11:41;99914.16;;;19.45;56.02
22018;BME280;11173;51.050;7.108;2023-10-09T16:21:41;99928.31;;;19.17;56.00
22018;BME280;11173;51.050;7.108;2023-10-09T16:31:43;99932.75;;;18.72;56.51
22018;BME280;11173;51.050;7.108;2023-10-09T16:41:46;99938.34;;;18.26;56.69
22018;BME280;11173;51.050;7.108;2023-10-09T16:51:47;99949.66;;;17.85;57.74
22018;BME280;11173;51.050;7.108;2023-10-09T17:01:48;99965.63;;;17.57;58.53
22018;BME280;11173;51.050;7.108;2023-10-09T17:11:49;99962.69;;;17.39;58.73
22018;BME280;11173;51.050;7.108;2023-10-09T17:21:52;99962.34;;;17.27;59.12
22018;BME280;11173;51.050;7.108;2023-10-09T17:31:53;99973.84;;;17.20;59.39
22018;BME280;11173;51.050;7.108;2023-10-09T17:41:53;99974.50;;;17.24;59.82
22018;BME280;11173;51.050;7.108;2023-10-09T17:51:55;99996.78;;;17.32;59.55
22018;BME280;11173;51.050;7.108;2023-10-09T18:01:58;99997.34;;;17.26;59.92
22018;BME280;11173;51.050;7.108;2023-10-09T18:11:59;100013.06;;;17.37;60.05
22018;BME280;11173;51.050;7.108;2023-10-09T18:22:01;100007.94;;;17.44;60.58
22018;BME280;11173;51.050;7.108;2023-10-09T18:32:02;100015.53;;;17.57;60.34
22018;BME280;11173;51.050;7.108;2023-10-09T18:42:02;100025.78;;;17.63;60.23
22018;BME280;11173;51.050;7.108;2023-10-09T18:52:03;100016.53;;;17.63;60.26
22018;BME280;11173;51.050;7.108;2023-10-09T19:02:06;100006.53;;;17.62;60.16
22018;BME280;11173;51.050;7.108;2023-10-09T19:12:11;100004.16;;;17.60;60.23
22018;BME280;11173;51.050;7.108;2023-10-09T19:22:11;100009.13;;;17.56;59.75
22018;BME280;11173;51.050;7.108;2023-10-09T19:32:13;100012.38;;;17.55;59.81
22018;BME280;11173;51.050;7.108;2023-10-09T19:42:14;100002.44;;;17.41;59.68
22018;BME280;11173;51.050;7.108;2023-10-09T19:52:16;100011.44;;;17.26;59.77
22018;BME280;11173;51.050;7.108;2023-10-09T20:02:17;100020.41;;;17.12;59.95
22018;BME280;11173;51.050;7.108;2023-10-09T20:12:18;100024.38;;;17.02;60.40
22018;BME280;11173;51.050;7.108;2023-10-09T20:22:20;100030.59;;;16.97;60.72
22018;BME280;11173;51.050;7.108;2023-10-09T20:32:22;100024.56;;;16.85;60.21
22018;BME280;11173;51.050;7.108;2023-10-09T20:42:22;100047.91;;;16.73;60.80
22018;BME280;11173;51.050;7.108;2023-10-09T20:52:24;100052.03;;;16.68;61.25
22018;BME280;11173;51.050;7.108;2023-10-09T21:02:25;100052.72;;;16.73;61.08
22018;BME280;11173;51.050;7.108;2023-10-09T21:12:26;100047.75;;;16.64;60.96
22018;BME280;11173;51.050;7.108;2023-10-09T21:22:26;100048.91;;;16.41;60.89
22018;BME280;11173;51.050;7.108;2023-10-09T21:32:27;100049.84;;;16.12;61.02
22018;BME280;11173;51.050;7.108;2023-10-09T21:42:27;100041.63;;;15.92;61.71
22018;BME280;11173;51.050;7.108;2023-10-09T21:52:28;100044.50;;;15.76;61.76
22018;BME280;11173;51.050;7.108;2023-10-09T22:02:29;100044.25;;;15.57;62.10
22018;BME280;11173;51.050;7.108;2023-10-09T22:12:32;100043.06;;;15.42;62.16
22018;BME280;11173;51.050;7.108;2023-10-09T22:22:32;100032.13;;;15.31;62.32
22018;BME280;11173;51.050;7.108;2023-10-09T22:32:33;100030.50;;;15.17;62.64
22018;BME280;11173;51.050;7.108;2023-10-09T22:42:34;100033.91;;;14.96;62.54
22018;BME280;11173;51.050;7.108;2023-10-09T22:52:36;100025.00;;;14.68;62.99
22018;BME280;11173;51.050;7.108;2023-10-09T23:02:37;100026.91;;;14.55;63.45
22018;BME280;11173;51.050;7.108;2023-10-09T23:12:50;100029.63;;;14.58;63.80
22018;BME280;11173;51.050;7.108;2023-10-09T23:22:50;100032.09;;;14.56;63.84
22018;BME280;11173;51.050;7.108;2023-10-09T23:32:53;100035.94;;;14.46;63.69
22018;BME280;11173;51.050;7.108;2023-10-09T23:43:20;100038.84;;;14.26;63.98
22018;BME280;11173;51.050;7.108;2023-10-09T23:53:32;100029.19;;;14.10;63.77
